createdAt,value
2018-06-15T00:00:11.813Z,21.8
2018-06-15T00:01:11.861Z,21.81
2018-06-15T00:02:11.860Z,21.82
2018-06-15T00:03:11.943Z,21.8
2018-06-15T00:04:11.744Z,21.82
2018-06-15T00:05:11.775Z,21.8
2018-06-15T00:06:11.887Z,21.8
2018-06-15T00:07:11.953Z,21.81
2018-06-15T00:08:11.779Z,21.77
2018-06-15T00:09:11.940Z,21.77
2018-06-15T00:10:11.973Z,21.76
2018-06-15T00:11:11.842Z,21.77
2018-06-15T00:12:11.800Z,21.78
2018-06-15T00:13:11.844Z,21.77
2018-06-15T00:14:11.734Z,21.77
2018-06-15T00:15:11.918Z,21.78
2018-06-15T00:16:11.813Z,21.78
2018-06-15T00:17:11.761Z,21.78
2018-06-15T00:18:11.829Z,21.78
2018-06-15T00:19:11.943Z,21.8
2018-06-15T00:20:11.897Z,21.77
2018-06-15T00:21:11.825Z,21.8
2018-06-15T00:22:11.970Z,21.76
2018-06-15T00:23:11.928Z,21.77
2018-06-15T00:24:11.971Z,21.78
2018-06-15T00:25:11.857Z,21.77
2018-06-15T00:26:11.973Z,21.76
2018-06-15T00:27:11.818Z,21.74
2018-06-15T00:28:12.108Z,21.71
2018-06-15T00:29:12.137Z,21.71
2018-06-15T00:30:11.821Z,21.71
2018-06-15T00:31:11.959Z,21.71
2018-06-15T00:32:11.869Z,21.71
2018-06-15T00:33:11.919Z,21.73
2018-06-15T00:34:11.928Z,21.73
2018-06-15T00:35:11.910Z,21.71
2018-06-15T00:36:11.838Z,21.67
2018-06-15T00:37:11.893Z,21.7
2018-06-15T00:38:11.781Z,21.7
2018-06-15T00:39:11.788Z,21.71
2018-06-15T00:40:11.946Z,21.71
2018-06-15T00:41:11.764Z,21.71
2018-06-15T00:42:11.921Z,21.7
2018-06-15T00:43:11.873Z,21.68
2018-06-15T00:44:11.863Z,21.71
2018-06-15T00:45:12.032Z,21.71
2018-06-15T00:46:11.749Z,21.71
2018-06-15T00:47:11.779Z,21.71
2018-06-15T00:48:11.877Z,21.68
2018-06-15T00:49:11.757Z,21.68
2018-06-15T00:50:11.628Z,21.7
2018-06-15T00:51:12.013Z,21.67
2018-06-15T00:52:11.775Z,21.66
2018-06-15T00:53:11.887Z,21.67
2018-06-15T00:54:11.938Z,21.7
2018-06-15T00:55:11.974Z,21.67
2018-06-15T00:56:12.186Z,21.67
2018-06-15T00:57:11.951Z,21.67
2018-06-15T00:58:12.069Z,21.67
2018-06-15T00:59:11.757Z,21.68
2018-06-15T01:00:11.865Z,21.67
2018-06-15T01:01:11.906Z,21.68
2018-06-15T01:02:11.891Z,21.66
2018-06-15T01:03:11.925Z,21.67
2018-06-15T01:04:11.812Z,21.67
2018-06-15T01:05:11.832Z,21.67
2018-06-15T01:06:11.776Z,21.67
2018-06-15T01:07:11.764Z,21.67
2018-06-15T01:08:11.719Z,21.66
2018-06-15T01:09:11.744Z,21.67
2018-06-15T01:10:11.868Z,21.66
2018-06-15T01:11:11.874Z,21.66
2018-06-15T01:12:11.772Z,21.64
2018-06-15T01:13:11.928Z,21.64
2018-06-15T01:14:11.925Z,21.64
2018-06-15T01:15:11.896Z,21.67
2018-06-15T01:16:11.864Z,21.64
2018-06-15T01:17:11.724Z,21.63
2018-06-15T01:18:11.770Z,21.67
2018-06-15T01:19:11.704Z,21.66
2018-06-15T01:20:11.826Z,21.68
2018-06-15T01:21:11.751Z,21.66
2018-06-15T01:22:11.843Z,21.66
2018-06-15T01:23:12.043Z,21.66
2018-06-15T01:24:11.848Z,21.64
2018-06-15T01:25:11.908Z,21.64
2018-06-15T01:26:11.854Z,21.67
2018-06-15T01:27:12.006Z,21.66
2018-06-15T01:28:12.098Z,21.64
2018-06-15T01:29:11.911Z,21.63
2018-06-15T01:30:12.025Z,21.61
2018-06-15T01:31:11.758Z,21.61
2018-06-15T01:32:11.919Z,21.66
2018-06-15T01:33:11.820Z,21.63
2018-06-15T01:34:11.901Z,21.64
2018-06-15T01:35:11.831Z,21.67
2018-06-15T01:36:11.842Z,21.63
2018-06-15T01:37:11.914Z,21.64
2018-06-15T01:38:11.882Z,21.61
2018-06-15T01:39:11.966Z,21.66
2018-06-15T01:40:11.852Z,21.61
2018-06-15T01:41:11.816Z,21.64
2018-06-15T01:42:11.730Z,21.64
2018-06-15T01:43:11.936Z,21.63
2018-06-15T01:44:11.691Z,21.63
2018-06-15T01:45:11.774Z,21.67
2018-06-15T01:46:11.902Z,21.63
2018-06-15T01:47:11.889Z,21.67
2018-06-15T01:48:11.934Z,21.66
2018-06-15T01:49:11.958Z,21.64
2018-06-15T01:50:11.811Z,21.63
2018-06-15T01:51:11.940Z,21.67
2018-06-15T01:52:11.770Z,21.6
2018-06-15T01:53:11.771Z,21.61
2018-06-15T01:54:11.838Z,21.63
2018-06-15T01:55:11.864Z,21.64
2018-06-15T01:56:11.835Z,21.64
2018-06-15T01:57:12.197Z,21.63
2018-06-15T01:58:12.076Z,21.59
2018-06-15T01:59:11.875Z,21.57
2018-06-15T02:00:11.999Z,21.6
2018-06-15T02:01:12.379Z,21.6
2018-06-15T02:02:11.703Z,21.59
2018-06-15T02:03:11.838Z,21.63
2018-06-15T02:04:11.833Z,21.61
2018-06-15T02:05:11.923Z,21.6
2018-06-15T02:06:11.899Z,21.64
2018-06-15T02:07:11.793Z,21.64
2018-06-15T02:08:11.829Z,21.61
2018-06-15T02:09:11.885Z,21.61
2018-06-15T02:10:11.841Z,21.61
2018-06-15T02:11:11.692Z,21.61
2018-06-15T02:12:11.990Z,21.64
2018-06-15T02:13:11.862Z,21.61
2018-06-15T02:14:11.905Z,21.59
2018-06-15T02:15:11.860Z,21.6
2018-06-15T02:16:11.863Z,21.61
2018-06-15T02:17:11.726Z,21.6
2018-06-15T02:18:11.733Z,21.63
2018-06-15T02:19:11.903Z,21.61
2018-06-15T02:20:11.704Z,21.63
2018-06-15T02:21:11.889Z,21.61
2018-06-15T02:22:11.812Z,21.59
2018-06-15T02:23:11.855Z,21.6
2018-06-15T02:24:11.809Z,21.59
2018-06-15T02:25:11.721Z,21.6
2018-06-15T02:26:11.966Z,21.59
2018-06-15T02:27:11.939Z,21.57
2018-06-15T02:28:11.769Z,21.6
2018-06-15T02:29:11.679Z,21.57
2018-06-15T02:30:11.973Z,21.54
2018-06-15T02:31:11.904Z,21.61
2018-06-15T02:32:11.997Z,21.6
2018-06-15T02:33:11.784Z,21.6
2018-06-15T02:34:11.875Z,21.61
2018-06-15T02:35:11.758Z,21.56
2018-06-15T02:36:11.727Z,21.59
2018-06-15T02:37:11.800Z,21.57
2018-06-15T02:38:11.711Z,21.59
2018-06-15T02:39:11.761Z,21.59
2018-06-15T02:40:11.740Z,21.57
2018-06-15T02:41:11.798Z,21.6
2018-06-15T02:42:11.805Z,21.61
2018-06-15T02:43:11.783Z,21.59
2018-06-15T02:44:11.873Z,21.57
2018-06-15T02:45:12.090Z,21.57
2018-06-15T02:46:11.815Z,21.57
2018-06-15T02:47:11.806Z,21.56
2018-06-15T02:48:11.918Z,21.54
2018-06-15T02:49:11.913Z,21.53
2018-06-15T02:50:11.812Z,21.56
2018-06-15T02:51:11.844Z,21.59
2018-06-15T02:52:11.866Z,21.56
2018-06-15T02:53:11.853Z,21.56
2018-06-15T02:54:11.874Z,21.57
2018-06-15T02:55:11.855Z,21.54
2018-06-15T02:56:11.738Z,21.56
2018-06-15T02:57:11.826Z,21.56
2018-06-15T02:58:11.820Z,21.54
2018-06-15T02:59:11.739Z,21.54
2018-06-15T03:00:11.811Z,21.57
2018-06-15T03:01:11.817Z,21.59
2018-06-15T03:02:11.801Z,21.57
2018-06-15T03:03:11.821Z,21.56
2018-06-15T03:04:11.909Z,21.54
2018-06-15T03:05:11.700Z,21.54
2018-06-15T03:06:11.909Z,21.57
2018-06-15T03:07:11.915Z,21.57
2018-06-15T03:08:11.796Z,21.57
2018-06-15T03:09:11.902Z,21.57
2018-06-15T03:10:11.910Z,21.59
2018-06-15T03:11:11.816Z,21.54
2018-06-15T03:12:11.881Z,21.56
2018-06-15T03:13:12.032Z,21.59
2018-06-15T03:14:11.779Z,21.57
2018-06-15T03:15:11.692Z,21.57
2018-06-15T03:16:11.832Z,21.54
2018-06-15T03:17:11.859Z,21.53
2018-06-15T03:18:11.926Z,21.53
2018-06-15T03:19:11.953Z,21.54
2018-06-15T03:20:11.719Z,21.53
2018-06-15T03:21:11.736Z,21.54
2018-06-15T03:22:11.794Z,21.5
2018-06-15T03:23:11.640Z,21.53
2018-06-15T03:24:11.978Z,21.51
2018-06-15T03:25:12.370Z,21.53
2018-06-15T03:26:11.956Z,21.51
2018-06-15T03:27:11.760Z,21.51
2018-06-15T03:28:11.676Z,21.51
2018-06-15T03:29:11.696Z,21.51
2018-06-15T03:30:11.842Z,21.5
2018-06-15T03:31:11.891Z,21.5
2018-06-15T03:32:11.718Z,21.51
2018-06-15T03:33:11.842Z,21.53
2018-06-15T03:34:11.708Z,21.51
2018-06-15T03:35:11.826Z,21.51
2018-06-15T03:36:11.919Z,21.53
2018-06-15T03:37:11.946Z,21.53
2018-06-15T03:38:11.749Z,21.51
2018-06-15T03:39:11.666Z,21.51
2018-06-15T03:40:11.917Z,21.53
2018-06-15T03:41:11.621Z,21.51
2018-06-15T03:42:12.010Z,21.51
2018-06-15T03:43:12.172Z,21.5
2018-06-15T03:44:12.078Z,21.5
2018-06-15T03:45:12.027Z,21.53
2018-06-15T03:46:11.872Z,21.53
2018-06-15T03:47:11.966Z,21.51
2018-06-15T03:48:11.932Z,21.53
2018-06-15T03:49:11.724Z,21.49
2018-06-15T03:50:11.843Z,21.51
2018-06-15T03:51:11.894Z,21.53
2018-06-15T03:52:21.770Z,21.5
2018-06-15T03:53:12.084Z,21.5
2018-06-15T03:54:11.925Z,21.49
2018-06-15T03:55:12.045Z,21.49
2018-06-15T03:56:11.845Z,21.5
2018-06-15T03:57:12.043Z,21.49
2018-06-15T03:58:11.779Z,21.47
2018-06-15T03:59:11.965Z,21.49
2018-06-15T04:00:11.914Z,21.49
2018-06-15T04:01:11.736Z,21.51
2018-06-15T04:02:11.959Z,21.51
2018-06-15T04:03:11.819Z,21.53
2018-06-15T04:04:11.871Z,21.51
2018-06-15T04:05:11.775Z,21.47
2018-06-15T04:06:11.640Z,21.47
2018-06-15T04:07:11.835Z,21.5
2018-06-15T04:08:12.041Z,21.5
2018-06-15T04:09:11.892Z,21.5
2018-06-15T04:10:12.081Z,21.5
2018-06-15T04:11:11.829Z,21.51
2018-06-15T04:12:11.752Z,21.53
2018-06-15T04:13:12.214Z,21.47
2018-06-15T04:14:11.916Z,21.49
2018-06-15T04:15:11.908Z,21.49
2018-06-15T04:16:11.857Z,21.47
2018-06-15T04:17:12.006Z,21.49
2018-06-15T04:18:11.975Z,21.47
2018-06-15T04:19:11.892Z,21.49
2018-06-15T04:20:11.850Z,21.47
2018-06-15T04:21:11.920Z,21.49
2018-06-15T04:22:11.832Z,21.46
2018-06-15T04:23:11.957Z,21.47
2018-06-15T04:24:11.875Z,21.5
2018-06-15T04:25:11.983Z,21.51
2018-06-15T04:26:11.927Z,21.47
2018-06-15T04:27:11.824Z,21.47
2018-06-15T04:28:11.726Z,21.49
2018-06-15T04:29:12.080Z,21.5
2018-06-15T04:30:11.715Z,21.47
2018-06-15T04:31:12.126Z,21.49
2018-06-15T04:32:11.938Z,21.5
2018-06-15T04:33:21.707Z,21.5
2018-06-15T04:34:11.832Z,21.51
2018-06-15T04:35:11.833Z,21.49
2018-06-15T04:36:11.738Z,21.47
2018-06-15T04:37:11.893Z,21.47
2018-06-15T04:38:11.909Z,21.47
2018-06-15T04:39:11.836Z,21.49
2018-06-15T04:40:11.822Z,21.44
2018-06-15T04:41:11.747Z,21.49
2018-06-15T04:42:12.276Z,21.46
2018-06-15T04:43:11.642Z,21.44
2018-06-15T04:44:11.939Z,21.44
2018-06-15T04:45:11.881Z,21.46
2018-06-15T04:46:11.831Z,21.5
2018-06-15T04:47:11.822Z,21.46
2018-06-15T04:48:11.769Z,21.47
2018-06-15T04:49:11.840Z,21.46
2018-06-15T04:50:12.024Z,21.44
2018-06-15T04:51:11.854Z,21.46
2018-06-15T04:52:11.878Z,21.46
2018-06-15T04:53:11.725Z,21.47
2018-06-15T04:54:11.790Z,21.47
2018-06-15T04:55:11.879Z,21.47
2018-06-15T04:56:12.300Z,21.49
2018-06-15T04:57:11.701Z,21.49
2018-06-15T04:58:42.891Z,21.51
2018-06-15T04:59:11.839Z,21.46
2018-06-15T05:00:11.786Z,21.5
2018-06-15T05:01:11.734Z,21.49
2018-06-15T05:02:11.659Z,21.46
2018-06-15T05:03:12.432Z,21.5
2018-06-15T05:04:11.712Z,21.49
2018-06-15T05:05:11.756Z,21.5
2018-06-15T05:06:11.876Z,21.46
2018-06-15T05:07:11.879Z,21.47
2018-06-15T05:08:11.782Z,21.44
2018-06-15T05:09:11.948Z,21.47
2018-06-15T05:10:11.878Z,21.47
2018-06-15T05:11:11.745Z,21.47
2018-06-15T05:12:12.108Z,21.44
2018-06-15T05:13:11.923Z,21.46
2018-06-15T05:14:11.845Z,21.49
2018-06-15T05:15:11.679Z,21.46
2018-06-15T05:16:11.829Z,21.46
2018-06-15T05:17:12.380Z,21.47
2018-06-15T05:18:11.741Z,21.49
2018-06-15T05:19:11.790Z,21.46
2018-06-15T05:20:11.958Z,21.47
2018-06-15T05:21:11.731Z,21.44
2018-06-15T05:22:11.826Z,21.44
2018-06-15T05:23:11.736Z,21.46
2018-06-15T05:24:11.758Z,21.47
2018-06-15T05:25:11.862Z,21.47
2018-06-15T05:26:11.777Z,21.46
2018-06-15T05:27:11.786Z,21.44
2018-06-15T05:28:11.933Z,21.44
2018-06-15T05:29:11.888Z,21.46
2018-06-15T05:30:12.017Z,21.47
2018-06-15T05:31:11.883Z,21.46
2018-06-15T05:32:11.951Z,21.42
2018-06-15T05:33:11.669Z,21.47
2018-06-15T05:34:11.935Z,21.47
2018-06-15T05:35:12.343Z,21.49
2018-06-15T05:36:11.627Z,21.44
2018-06-15T05:37:11.594Z,21.44
2018-06-15T05:38:11.628Z,21.46
2018-06-15T05:39:11.873Z,21.49
2018-06-15T05:40:11.710Z,21.46
2018-06-15T05:41:11.885Z,21.47
2018-06-15T05:42:11.735Z,21.46
2018-06-15T05:43:11.720Z,21.47
2018-06-15T05:44:11.693Z,21.44
2018-06-15T05:45:11.729Z,21.44
2018-06-15T05:46:11.717Z,21.46
2018-06-15T05:47:11.668Z,21.46
2018-06-15T05:48:11.802Z,21.46
2018-06-15T05:49:11.782Z,21.44
2018-06-15T05:50:11.834Z,21.44
2018-06-15T05:51:11.741Z,21.46
2018-06-15T05:52:11.794Z,21.49
2018-06-15T05:53:11.704Z,21.49
2018-06-15T05:54:11.995Z,21.49
2018-06-15T05:55:11.818Z,21.5
2018-06-15T05:56:11.830Z,21.5
2018-06-15T05:57:11.878Z,21.51
2018-06-15T05:58:11.672Z,21.49
2018-06-15T05:59:12.057Z,21.44
2018-06-15T06:00:11.818Z,21.47
2018-06-15T06:01:11.726Z,21.46
2018-06-15T06:02:11.608Z,21.46
2018-06-15T06:03:11.693Z,21.46
2018-06-15T06:04:12.647Z,21.49
2018-06-15T06:05:11.901Z,21.47
2018-06-15T06:06:11.897Z,21.49
2018-06-15T06:07:11.674Z,21.5
2018-06-15T06:08:11.804Z,21.5
2018-06-15T06:09:11.854Z,21.51
2018-06-15T06:10:11.870Z,21.51
2018-06-15T06:11:11.927Z,21.51
2018-06-15T06:12:11.707Z,21.51
2018-06-15T06:13:11.753Z,21.49
2018-06-15T06:14:11.815Z,21.49
2018-06-15T06:15:11.783Z,21.5
2018-06-15T06:16:11.677Z,21.49
2018-06-15T06:17:11.776Z,21.5
2018-06-15T06:18:11.847Z,21.51
2018-06-15T06:19:11.669Z,21.49
2018-06-15T06:20:11.891Z,21.49
2018-06-15T06:21:11.784Z,21.5
2018-06-15T06:22:11.887Z,21.5
2018-06-15T06:23:11.777Z,21.5
2018-06-15T06:24:11.772Z,21.49
2018-06-15T06:25:11.723Z,21.5
2018-06-15T06:26:11.952Z,21.5
2018-06-15T06:27:11.945Z,21.5
2018-06-15T06:28:12.017Z,21.49
2018-06-15T06:29:21.902Z,21.5
2018-06-15T06:30:12.460Z,21.49
2018-06-15T06:31:11.854Z,21.49
2018-06-15T06:32:11.726Z,21.47
2018-06-15T06:33:11.849Z,21.46
2018-06-15T06:34:12.124Z,21.47
2018-06-15T06:35:11.654Z,21.47
2018-06-15T06:36:11.856Z,21.49
2018-06-15T06:37:11.900Z,21.49
2018-06-15T06:38:11.778Z,21.49
2018-06-15T06:39:11.630Z,21.47
2018-06-15T06:40:11.792Z,21.49
2018-06-15T06:41:11.854Z,21.46
2018-06-15T06:42:12.065Z,21.47
2018-06-15T06:43:11.715Z,21.47
2018-06-15T06:44:11.777Z,21.47
2018-06-15T06:45:11.651Z,21.47
2018-06-15T06:46:11.659Z,21.47
2018-06-15T06:47:11.823Z,21.47
2018-06-15T06:48:11.845Z,21.46
2018-06-15T06:49:11.699Z,21.47
2018-06-15T06:50:11.756Z,21.47
2018-06-15T06:51:12.184Z,21.44
2018-06-15T06:52:11.907Z,21.47
2018-06-15T06:53:11.738Z,21.49
2018-06-15T06:54:11.679Z,21.46
2018-06-15T06:55:11.821Z,21.46
2018-06-15T06:56:11.675Z,21.49
2018-06-15T06:57:11.696Z,21.5
2018-06-15T06:58:11.711Z,21.46
2018-06-15T06:59:11.956Z,21.47
2018-06-15T07:00:11.788Z,21.47
2018-06-15T07:01:11.922Z,21.5
2018-06-15T07:02:11.770Z,21.49
2018-06-15T07:03:12.005Z,21.47
2018-06-15T07:04:11.942Z,21.44
2018-06-15T07:05:11.785Z,21.47
2018-06-15T07:06:12.375Z,21.46
2018-06-15T07:07:11.791Z,21.47
2018-06-15T07:08:11.779Z,21.44
2018-06-15T07:09:11.834Z,21.46
2018-06-15T07:10:11.886Z,21.46
2018-06-15T07:11:11.799Z,21.46
2018-06-15T07:12:11.615Z,21.47
2018-06-15T07:13:12.309Z,21.46
2018-06-15T07:14:11.645Z,21.47
2018-06-15T07:15:11.892Z,21.46
2018-06-15T07:16:11.853Z,21.46
2018-06-15T07:17:12.101Z,21.43
2018-06-15T07:18:11.675Z,21.44
2018-06-15T07:19:11.756Z,21.43
2018-06-15T07:20:11.940Z,21.46
2018-06-15T07:21:11.607Z,21.47
2018-06-15T07:22:12.038Z,21.43
2018-06-15T07:23:11.849Z,21.47
2018-06-15T07:24:11.908Z,21.44
2018-06-15T07:25:12.000Z,21.47
2018-06-15T07:26:11.786Z,21.47
2018-06-15T07:27:11.837Z,21.47
2018-06-15T07:28:11.862Z,21.49
2018-06-15T07:29:11.974Z,21.5
2018-06-15T07:30:11.801Z,21.5
2018-06-15T07:31:11.909Z,21.47
2018-06-15T07:32:11.872Z,21.5
2018-06-15T07:33:12.013Z,21.5
2018-06-15T07:34:11.824Z,21.51
2018-06-15T07:35:11.887Z,21.5
2018-06-15T07:36:11.627Z,21.47
2018-06-15T07:37:11.910Z,21.49
2018-06-15T07:38:11.667Z,21.5
2018-06-15T07:39:11.746Z,21.49
2018-06-15T07:40:11.657Z,21.5
2018-06-15T07:41:11.731Z,21.5
2018-06-15T07:42:11.783Z,21.51
2018-06-15T07:43:11.824Z,21.47
2018-06-15T07:44:11.851Z,21.47
2018-06-15T07:45:11.777Z,21.47
2018-06-15T07:46:12.419Z,21.49
2018-06-15T07:47:11.884Z,21.46
2018-06-15T07:48:11.638Z,21.47
2018-06-15T07:49:11.630Z,21.47
2018-06-15T07:50:11.840Z,21.47
2018-06-15T07:51:11.694Z,21.49
2018-06-15T07:52:11.636Z,21.47
2018-06-15T07:53:11.846Z,21.46
2018-06-15T07:54:11.892Z,21.46
2018-06-15T07:55:11.760Z,21.46
2018-06-15T07:56:11.797Z,21.46
2018-06-15T07:57:11.498Z,21.46
2018-06-15T07:58:11.868Z,21.47
2018-06-15T07:59:11.789Z,21.44
2018-06-15T08:00:11.892Z,21.46
2018-06-15T08:01:11.580Z,21.44
2018-06-15T08:02:11.719Z,21.46
2018-06-15T08:03:11.797Z,21.46
2018-06-15T08:04:11.890Z,21.46
2018-06-15T08:05:11.591Z,21.46
2018-06-15T08:06:11.569Z,21.46
2018-06-15T08:07:11.644Z,21.44
2018-06-15T08:08:11.781Z,21.46
2018-06-15T08:09:11.662Z,21.46
2018-06-15T08:10:12.048Z,21.46
2018-06-15T08:11:11.787Z,21.44
2018-06-15T08:12:11.634Z,21.46
2018-06-15T08:13:11.738Z,21.44
2018-06-15T08:14:11.774Z,21.42
2018-06-15T08:15:36.621Z,21.44
2018-06-15T08:16:11.760Z,21.44
2018-06-15T08:17:11.714Z,21.47
2018-06-15T08:18:11.817Z,21.46
2018-06-15T08:19:11.895Z,21.47
2018-06-15T08:20:11.786Z,21.46
2018-06-15T08:21:11.784Z,21.43
2018-06-15T08:22:11.596Z,21.44
2018-06-15T08:23:11.708Z,21.43
2018-06-15T08:24:11.743Z,21.42
2018-06-15T08:25:48.618Z,21.43
2018-06-15T08:26:11.817Z,21.44
2018-06-15T08:27:11.808Z,21.49
2018-06-15T08:28:11.829Z,21.46
2018-06-15T08:29:11.766Z,21.46
2018-06-15T08:30:11.674Z,21.47
2018-06-15T08:31:11.797Z,21.44
2018-06-15T08:32:11.747Z,21.44
2018-06-15T08:33:11.783Z,21.46
2018-06-15T08:34:11.729Z,21.44
2018-06-15T08:35:11.678Z,21.44
2018-06-15T08:36:11.707Z,21.46
2018-06-15T08:37:11.935Z,21.43
2018-06-15T08:38:11.732Z,21.44
2018-06-15T08:39:11.646Z,21.44
2018-06-15T08:40:11.749Z,21.44
2018-06-15T08:41:11.824Z,21.44
2018-06-15T08:42:11.657Z,21.43
2018-06-15T08:43:11.747Z,21.44
2018-06-15T08:44:11.812Z,21.46
2018-06-15T08:45:11.665Z,21.43
2018-06-15T08:46:11.738Z,21.42
2018-06-15T08:47:11.707Z,21.43
2018-06-15T08:48:21.637Z,21.43
2018-06-15T08:49:11.844Z,21.4
2018-06-15T08:50:11.886Z,21.43
2018-06-15T08:51:11.857Z,21.43
2018-06-15T08:52:11.826Z,21.43
2018-06-15T08:53:11.823Z,21.44
2018-06-15T08:54:11.866Z,21.42
2018-06-15T08:55:11.911Z,21.43
2018-06-15T08:56:11.819Z,21.44
2018-06-15T08:57:11.621Z,21.44
2018-06-15T08:58:11.760Z,21.47
2018-06-15T08:59:11.850Z,21.47
2018-06-15T09:00:11.777Z,21.49
2018-06-15T09:01:11.695Z,21.5
2018-06-15T09:02:11.756Z,21.5
2018-06-15T09:03:11.836Z,21.49
2018-06-15T09:04:11.663Z,21.51
2018-06-15T09:05:11.781Z,21.54
2018-06-15T09:06:11.929Z,21.56
2018-06-15T09:07:11.625Z,21.57
2018-06-15T09:08:11.825Z,21.6
2018-06-15T09:09:11.900Z,21.59
2018-06-15T09:10:11.725Z,21.6
2018-06-15T09:11:11.852Z,21.61
2018-06-15T09:12:11.716Z,21.6
2018-06-15T09:13:11.639Z,21.63
2018-06-15T09:14:11.707Z,21.63
2018-06-15T09:15:11.708Z,21.63
2018-06-15T09:16:11.779Z,21.64
2018-06-15T09:17:11.727Z,21.66
2018-06-15T09:18:12.180Z,21.66
2018-06-15T09:19:11.893Z,21.64
2018-06-15T09:20:11.857Z,21.66
2018-06-15T09:21:11.891Z,21.66
2018-06-15T09:22:11.658Z,21.64
2018-06-15T09:23:11.751Z,21.68
2018-06-15T09:24:11.784Z,21.7
2018-06-15T09:25:11.795Z,21.68
2018-06-15T09:26:11.648Z,21.68
2018-06-15T09:27:11.700Z,21.66
2018-06-15T09:28:11.878Z,21.68
2018-06-15T09:29:11.824Z,21.68
2018-06-15T09:30:11.667Z,21.67
2018-06-15T09:31:11.702Z,21.67
2018-06-15T09:32:11.659Z,21.67
2018-06-15T09:33:11.827Z,21.68
2018-06-15T09:34:11.679Z,21.73
2018-06-15T09:35:11.728Z,21.67
2018-06-15T09:36:11.762Z,21.68
2018-06-15T09:37:11.720Z,21.68
2018-06-15T09:38:11.801Z,21.7
2018-06-15T09:39:11.655Z,21.68
2018-06-15T09:40:11.735Z,21.7
2018-06-15T09:41:11.734Z,21.71
2018-06-15T09:42:11.850Z,21.68
2018-06-15T09:43:12.147Z,21.73
2018-06-15T09:44:11.824Z,21.71
2018-06-15T09:45:11.800Z,21.73
2018-06-15T09:46:12.001Z,21.73
2018-06-15T09:47:11.617Z,21.74
2018-06-15T09:48:11.847Z,21.76
2018-06-15T09:49:11.677Z,21.74
2018-06-15T09:50:11.879Z,21.74
2018-06-15T09:51:11.811Z,21.76
2018-06-15T09:52:11.992Z,21.78
2018-06-15T09:53:11.824Z,21.77
2018-06-15T09:54:11.739Z,21.76
2018-06-15T09:55:11.979Z,21.77
2018-06-15T09:56:11.813Z,21.77
2018-06-15T09:57:11.775Z,21.77
2018-06-15T09:58:11.582Z,21.8
2018-06-15T09:59:11.729Z,21.78
2018-06-15T10:00:11.890Z,21.78
2018-06-15T10:01:11.804Z,21.8
2018-06-15T10:02:11.735Z,21.8
2018-06-15T10:03:11.661Z,21.81
2018-06-15T10:04:12.016Z,21.81
2018-06-15T10:05:11.859Z,21.81
2018-06-15T10:06:12.567Z,21.85
2018-06-15T10:07:11.635Z,21.82
2018-06-15T10:08:11.836Z,21.82
2018-06-15T10:09:11.858Z,21.8
2018-06-15T10:10:12.002Z,21.81
2018-06-15T10:11:11.893Z,21.8
2018-06-15T10:12:11.900Z,21.84
2018-06-15T10:13:11.773Z,21.8
2018-06-15T10:14:11.845Z,21.81
2018-06-15T10:15:11.825Z,21.81
2018-06-15T10:16:11.659Z,21.81
2018-06-15T10:17:11.772Z,21.8
2018-06-15T10:18:11.849Z,21.82
2018-06-15T10:19:11.741Z,21.81
2018-06-15T10:20:11.967Z,21.84
2018-06-15T10:21:11.617Z,21.82
2018-06-15T10:22:11.770Z,21.85
2018-06-15T10:23:11.722Z,21.85
2018-06-15T10:24:11.621Z,21.85
2018-06-15T10:25:11.621Z,21.87
2018-06-15T10:26:11.791Z,21.88
2018-06-15T10:27:11.988Z,21.87
2018-06-15T10:28:11.843Z,21.84
2018-06-15T10:29:11.717Z,21.85
2018-06-15T10:30:11.717Z,21.87
2018-06-15T10:31:11.754Z,21.87
2018-06-15T10:32:11.744Z,21.87
2018-06-15T10:33:11.607Z,21.84
2018-06-15T10:34:11.627Z,21.87
2018-06-15T10:35:11.723Z,21.87
2018-06-15T10:36:11.739Z,21.87
2018-06-15T10:37:11.783Z,21.87
2018-06-15T10:38:11.645Z,21.87
2018-06-15T10:38:54.441Z,21.89
2018-06-15T10:39:51.971Z,21.84
2018-06-15T10:40:52.131Z,21.82
2018-06-15T10:41:51.585Z,21.78
2018-06-15T10:42:51.903Z,21.77
2018-06-15T10:43:51.945Z,21.76
2018-06-15T10:44:51.874Z,21.77
2018-06-15T10:45:51.201Z,21.77
2018-06-15T10:46:51.068Z,21.78
2018-06-15T10:47:51.217Z,21.76
2018-06-15T10:48:51.553Z,21.77
2018-06-15T10:49:51.352Z,21.77
2018-06-15T10:50:51.476Z,21.77
2018-06-15T10:51:51.142Z,21.73
2018-06-15T10:52:32.718Z,21.74
2018-06-15T10:53:14.785Z,21.77
2018-06-15T10:54:14.779Z,21.77
2018-06-15T10:55:14.792Z,21.77
2018-06-15T10:56:15.063Z,21.78
2018-06-15T10:57:14.665Z,21.78
2018-06-15T10:58:14.720Z,21.8
2018-06-15T10:59:14.708Z,21.81
2018-06-15T11:00:14.607Z,21.81
2018-06-15T11:01:14.742Z,21.78
2018-06-15T11:02:14.707Z,21.8
2018-06-15T11:03:14.585Z,21.78
2018-06-15T11:04:14.618Z,21.77
2018-06-15T11:05:14.694Z,21.78
2018-06-15T11:05:45.500Z,21.8
2018-06-15T11:06:45.537Z,21.82
2018-06-15T11:07:45.391Z,21.84
2018-06-15T11:08:45.433Z,21.84
2018-06-15T11:09:45.595Z,21.8
2018-06-15T11:10:45.504Z,21.82
2018-06-15T11:11:45.524Z,21.84
2018-06-15T11:12:58.164Z,21.87
2018-06-15T11:13:58.051Z,21.94
2018-06-15T11:14:57.932Z,21.91
2018-06-15T11:15:58.013Z,21.92
2018-06-15T11:16:57.978Z,21.96
2018-06-15T11:17:58.101Z,21.94
2018-06-15T11:18:58.084Z,21.95
2018-06-15T11:19:58.207Z,21.95
2018-06-15T11:20:58.129Z,21.98
2018-06-15T11:21:58.094Z,21.98
2018-06-15T11:22:58.061Z,21.94
2018-06-15T11:23:58.062Z,21.96
2018-06-15T11:24:58.008Z,21.94
2018-06-15T11:25:58.144Z,21.95
2018-06-15T11:26:57.991Z,21.95
2018-06-15T11:27:58.146Z,21.92
2018-06-15T11:28:58.080Z,21.89
2018-06-15T11:29:57.875Z,21.94
2018-06-15T11:30:58.885Z,21.92
2018-06-15T11:31:58.044Z,21.89
2018-06-15T11:32:57.873Z,21.88
2018-06-15T11:33:58.011Z,21.87
2018-06-15T11:34:57.979Z,21.88
2018-06-15T11:35:58.049Z,21.88
2018-06-15T11:36:58.020Z,21.84
2018-06-15T11:37:58.065Z,21.88
2018-06-15T11:38:57.947Z,21.87
2018-06-15T11:39:58.112Z,21.85
2018-06-15T11:40:58.545Z,21.84
2018-06-15T11:41:57.944Z,21.82
2018-06-15T11:42:57.922Z,21.82
2018-06-15T11:43:58.011Z,21.84
2018-06-15T11:44:58.021Z,21.82
2018-06-15T11:45:58.087Z,21.84
2018-06-15T11:46:58.095Z,21.81
2018-06-15T11:47:57.973Z,21.87
2018-06-15T11:48:58.059Z,21.84
2018-06-15T11:49:58.055Z,21.82
2018-06-15T11:50:57.971Z,21.8
2018-06-15T11:51:58.112Z,21.81
2018-06-15T11:52:58.089Z,21.78
2018-06-15T11:53:57.966Z,21.8
2018-06-15T11:54:58.038Z,21.78
2018-06-15T11:55:57.876Z,21.78
2018-06-15T11:56:58.065Z,21.76
2018-06-15T11:57:57.945Z,21.77
2018-06-15T11:58:57.922Z,21.76
2018-06-15T11:59:57.871Z,21.78
2018-06-15T12:00:57.906Z,21.74
2018-06-15T12:01:58.069Z,21.76
2018-06-15T12:02:58.003Z,21.73
2018-06-15T12:03:58.166Z,21.74
2018-06-15T12:04:58.321Z,21.77
2018-06-15T12:05:58.179Z,21.71
2018-06-15T12:06:58.197Z,21.74
2018-06-15T12:07:58.825Z,21.76
2018-06-15T12:09:08.007Z,21.74
2018-06-15T12:09:58.215Z,21.8
2018-06-15T12:10:57.949Z,21.77
2018-06-15T12:11:57.998Z,21.77
2018-06-15T12:12:58.164Z,21.8
2018-06-15T12:13:57.999Z,21.8
2018-06-15T12:14:58.339Z,21.8
2018-06-15T12:15:58.332Z,21.81
2018-06-15T12:16:58.215Z,21.81
2018-06-15T12:17:58.287Z,21.8
2018-06-15T12:18:58.229Z,21.8
2018-06-15T12:19:58.217Z,21.78
2018-06-15T12:20:58.222Z,21.82
2018-06-15T12:21:58.093Z,21.85
2018-06-15T12:22:58.085Z,21.87
2018-06-15T12:23:58.268Z,21.87
2018-06-15T12:24:58.146Z,21.87
2018-06-15T12:25:57.989Z,21.89
2018-06-15T12:26:58.037Z,21.88
2018-06-15T12:27:58.198Z,21.89
2018-06-15T12:28:58.166Z,21.89
2018-06-15T12:29:58.076Z,21.91
2018-06-15T12:30:58.145Z,21.91
2018-06-15T12:31:57.999Z,21.92
2018-06-15T12:32:58.144Z,21.91
2018-06-15T12:33:58.191Z,21.94
2018-06-15T12:34:58.140Z,21.91
2018-06-15T12:35:58.235Z,21.91
2018-06-15T12:36:58.521Z,21.91
2018-06-15T12:37:58.041Z,21.88
2018-06-15T12:38:58.094Z,21.91
2018-06-15T12:39:58.198Z,21.92
2018-06-15T12:40:57.952Z,21.88
2018-06-15T12:41:58.107Z,21.91
2018-06-15T12:42:58.147Z,21.89
2018-06-15T12:43:57.960Z,21.89
2018-06-15T12:44:58.122Z,21.91
2018-06-15T12:45:58.924Z,21.91
2018-06-15T12:46:58.090Z,21.91
2018-06-15T12:47:57.976Z,21.91
2018-06-15T12:48:58.136Z,21.91
2018-06-15T12:50:08.119Z,21.89
2018-06-15T12:50:58.208Z,21.91
2018-06-15T12:51:58.189Z,21.92
2018-06-15T12:52:58.193Z,21.94
2018-06-15T12:53:58.106Z,21.95